Time;durP1;ratioP1;P1;durP2;ratioP2;P2;SDS_P1;SDS_P2;PMS_P1;PMS_P2;Temp;Humidity;BMP_temperature;BMP_pressure;BME280_temperature;BME280_humidity;BME280_pressure;Samples;Min_cycle;Max_cycle;Signal;HPM_P1;HPM_P2
2021/05/09 00:00:32;;;;;;;3;2.35;;;;;;;7.86;100;95030.2;;;;
2021/05/09 00:01:32;;;;;;;2.2;1.95;;;;;;;7.78;100;95029.99;;;;
2021/05/09 00:02:33;;;;;;;2.2;1.95;;;;;;;7.78;100;95029.99;;;;
2021/05/09 00:03:34;;;;;;;2.2;1.95;;;;;;;7.78;100;95029.99;;;;
2021/05/09 00:04:34;;;;;;;2.2;1.95;;;;;;;7.78;100;95029.99;;;;
2021/05/09 00:05:35;;;;;;;2.2;1.95;;;;;;;7.78;100;95029.99;;;;
2021/05/09 00:06:36;;;;;;;2.2;1.95;;;;;;;7.78;100;95029.99;;;;
2021/05/09 00:07:37;;;;;;;2.2;1.95;;;;;;;7.78;100;95029.99;;;;
2021/05/09 00:08:37;;;;;;;2.2;1.95;;;;;;;7.78;100;95029.99;;;;
2021/05/09 00:09:38;;;;;;;2.2;1.95;;;;;;;7.78;100;95029.99;;;;
2021/05/09 00:10:38;;;;;;;2.2;1.95;;;;;;;7.78;100;95029.99;;;;
2021/05/09 00:11:40;;;;;;;2.2;1.95;;;;;;;7.78;100;95029.99;;;;
2021/05/09 00:12:40;;;;;;;2.8;2.1;;;;;;;7.69;100;95021.51;;;;
2021/05/09 00:13:41;;;;;;;2.8;2.1;;;;;;;7.69;100;95021.51;;;;
2021/05/09 00:14:42;;;;;;;2.8;2.1;;;;;;;7.69;100;95021.51;;;;
2021/05/09 00:15:43;;;;;;;2.8;2.1;;;;;;;7.69;100;95021.51;;;;
2021/05/09 00:16:43;;;;;;;2.8;2.1;;;;;;;7.69;100;95021.51;;;;
2021/05/09 00:17:44;;;;;;;2.8;2.1;;;;;;;7.69;100;95021.51;;;;
2021/05/09 00:18:44;;;;;;;2.8;2.1;;;;;;;7.69;100;95021.51;;;;
2021/05/09 00:19:45;;;;;;;2.8;2.1;;;;;;;7.69;100;95021.51;;;;
2021/05/09 00:20:46;;;;;;;2.8;2.1;;;;;;;7.69;100;95021.51;;;;
2021/05/09 00:21:46;;;;;;;2.8;2.1;;;;;;;7.69;100;95021.51;;;;
2021/05/09 00:22:47;;;;;;;2.25;2.05;;;;;;;7.69;100;95013.86;;;;
2021/05/09 00:23:48;;;;;;;2.25;2.05;;;;;;;7.69;100;95013.86;;;;
2021/05/09 00:24:48;;;;;;;2.25;2.05;;;;;;;7.69;100;95013.86;;;;
2021/05/09 00:25:49;;;;;;;2.25;2.05;;;;;;;7.69;100;95013.86;;;;
2021/05/09 00:26:50;;;;;;;2.25;2.05;;;;;;;7.69;100;95013.86;;;;
2021/05/09 00:27:50;;;;;;;2.25;2.05;;;;;;;7.69;100;95013.86;;;;
2021/05/09 00:28:51;;;;;;;2.25;2.05;;;;;;;7.69;100;95013.86;;;;
2021/05/09 00:29:51;;;;;;;2.25;2.05;;;;;;;7.69;100;95013.86;;;;
2021/05/09 00:30:52;;;;;;;2.25;2.05;;;;;;;7.69;100;95013.86;;;;
2021/05/09 00:31:53;;;;;;;2.25;2.05;;;;;;;7.69;100;95013.86;;;;
2021/05/09 00:32:53;;;;;;;2.25;2.05;;;;;;;7.69;100;95013.86;;;;
2021/05/09 00:33:54;;;;;;;3.1;2.25;;;;;;;7.58;100;95010.58;;;;
2021/05/09 00:34:54;;;;;;;3.1;2.25;;;;;;;7.58;100;95010.58;;;;
2021/05/09 00:35:55;;;;;;;3.1;2.25;;;;;;;7.58;100;95010.58;;;;
2021/05/09 00:36:55;;;;;;;3.1;2.25;;;;;;;7.58;100;95010.58;;;;
2021/05/09 00:37:56;;;;;;;3.1;2.25;;;;;;;7.58;100;95010.58;;;;
2021/05/09 00:38:57;;;;;;;3.1;2.25;;;;;;;7.58;100;95010.58;;;;
2021/05/09 00:39:57;;;;;;;3.1;2.25;;;;;;;7.58;100;95010.58;;;;
2021/05/09 00:40:58;;;;;;;3.1;2.25;;;;;;;7.58;100;95010.58;;;;
2021/05/09 00:41:59;;;;;;;3.1;2.25;;;;;;;7.58;100;95010.58;;;;
2021/05/09 00:43:00;;;;;;;3.1;2.25;;;;;;;7.58;100;95010.58;;;;
2021/05/09 00:44:01;;;;;;;2.95;2.1;;;;;;;7.44;100;95012.7;;;;
2021/05/09 00:45:01;;;;;;;2.95;2.1;;;;;;;7.44;100;95012.7;;;;
2021/05/09 00:46:02;;;;;;;2.95;2.1;;;;;;;7.44;100;95012.7;;;;
2021/05/09 00:47:03;;;;;;;2.95;2.1;;;;;;;7.44;100;95012.7;;;;
2021/05/09 00:48:09;;;;;;;2.95;2.1;;;;;;;7.44;100;95012.7;;;;
2021/05/09 00:49:10;;;;;;;2.95;2.1;;;;;;;7.44;100;95012.7;;;;
2021/05/09 00:50:11;;;;;;;2.95;2.1;;;;;;;7.44;100;95012.7;;;;
2021/05/09 00:51:12;;;;;;;2.95;2.1;;;;;;;7.44;100;95012.7;;;;
2021/05/09 00:52:13;;;;;;;2.95;2.1;;;;;;;7.44;100;95012.7;;;;
2021/05/09 00:53:13;;;;;;;2.95;2.1;;;;;;;7.44;100;95012.7;;;;
2021/05/09 00:54:20;;;;;;;2.95;2.1;;;;;;;7.44;100;95012.7;;;;
2021/05/09 00:55:23;;;;;;;2.5;2.3;;;;;;;7.33;100;95003.11;;;;
2021/05/09 00:56:24;;;;;;;2.5;2.3;;;;;;;7.33;100;95003.11;;;;
2021/05/09 00:57:26;;;;;;;2.5;2.3;;;;;;;7.33;100;95003.11;;;;
2021/05/09 00:58:26;;;;;;;2.5;2.3;;;;;;;7.33;100;95003.11;;;;
2021/05/09 00:59:28;;;;;;;2.5;2.3;;;;;;;7.33;100;95003.11;;;;
2021/05/09 01:00:29;;;;;;;2.5;2.3;;;;;;;7.33;100;95003.11;;;;
2021/05/09 01:01:30;;;;;;;2.5;2.3;;;;;;;7.33;100;95003.11;;;;
2021/05/09 01:02:32;;;;;;;2.5;2.3;;;;;;;7.33;100;95003.11;;;;
2021/05/09 01:03:33;;;;;;;2.5;2.3;;;;;;;7.33;100;95003.11;;;;
2021/05/09 01:04:36;;;;;;;2.5;2.3;;;;;;;7.33;100;95003.11;;;;
2021/05/09 01:05:36;;;;;;;2.25;1.85;;;;;;;7.39;100;95000.47;;;;
2021/05/09 01:06:37;;;;;;;2.25;1.85;;;;;;;7.39;100;95000.47;;;;
2021/05/09 01:07:38;;;;;;;2.25;1.85;;;;;;;7.39;100;95000.47;;;;
2021/05/09 01:08:40;;;;;;;2.25;1.85;;;;;;;7.39;100;95000.47;;;;
2021/05/09 01:09:40;;;;;;;2.25;1.85;;;;;;;7.39;100;95000.47;;;;
2021/05/09 01:10:41;;;;;;;2.25;1.85;;;;;;;7.39;100;95000.47;;;;
2021/05/09 01:11:42;;;;;;;2.25;1.85;;;;;;;7.39;100;95000.47;;;;
2021/05/09 01:12:42;;;;;;;2.25;1.85;;;;;;;7.39;100;95000.47;;;;
2021/05/09 01:13:43;;;;;;;2.25;1.85;;;;;;;7.39;100;95000.47;;;;
2021/05/09 01:14:43;;;;;;;2.25;1.85;;;;;;;7.39;100;95000.47;;;;
2021/05/09 01:15:45;;;;;;;2.25;1.85;;;;;;;7.39;100;95000.47;;;;
2021/05/09 01:16:45;;;;;;;2.35;1.75;;;;;;;7.69;100;94987.51;;;;
2021/05/09 01:17:46;;;;;;;2.35;1.75;;;;;;;7.69;100;94987.51;;;;
2021/05/09 01:18:46;;;;;;;2.35;1.75;;;;;;;7.69;100;94987.51;;;;
2021/05/09 01:19:47;;;;;;;2.35;1.75;;;;;;;7.69;100;94987.51;;;;
2021/05/09 01:20:47;;;;;;;2.35;1.75;;;;;;;7.69;100;94987.51;;;;
2021/05/09 01:21:48;;;;;;;2.35;1.75;;;;;;;7.69;100;94987.51;;;;
2021/05/09 01:22:48;;;;;;;2.35;1.75;;;;;;;7.69;100;94987.51;;;;
2021/05/09 01:23:49;;;;;;;2.35;1.75;;;;;;;7.69;100;94987.51;;;;
2021/05/09 01:24:49;;;;;;;2.35;1.75;;;;;;;7.69;100;94987.51;;;;
2021/05/09 01:25:50;;;;;;;2.35;1.75;;;;;;;7.69;100;94987.51;;;;
2021/05/09 01:26:50;;;;;;;2.9;1.85;;;;;;;7.8;100;94983.14;;;;
2021/05/09 01:27:51;;;;;;;2.9;1.85;;;;;;;7.8;100;94983.14;;;;
2021/05/09 01:28:53;;;;;;;2.9;1.85;;;;;;;7.8;100;94983.14;;;;
2021/05/09 01:29:53;;;;;;;2.9;1.85;;;;;;;7.8;100;94983.14;;;;
2021/05/09 01:30:54;;;;;;;2.9;1.85;;;;;;;7.8;100;94983.14;;;;
2021/05/09 01:31:54;;;;;;;2.9;1.85;;;;;;;7.8;100;94983.14;;;;
2021/05/09 01:32:55;;;;;;;2.9;1.85;;;;;;;7.8;100;94983.14;;;;
2021/05/09 01:33:56;;;;;;;2.9;1.85;;;;;;;7.8;100;94983.14;;;;
2021/05/09 01:34:56;;;;;;;2.9;1.85;;;;;;;7.8;100;94983.14;;;;
2021/05/09 01:35:57;;;;;;;2.9;1.85;;;;;;;7.8;100;94983.14;;;;
2021/05/09 01:36:58;;;;;;;2.9;1.85;;;;;;;7.8;100;94983.14;;;;
2021/05/09 01:37:59;;;;;;;2;1.65;;;;;;;7.86;100;94979.94;;;;
2021/05/09 01:39:00;;;;;;;2;1.65;;;;;;;7.86;100;94979.94;;;;
2021/05/09 01:40:00;;;;;;;2;1.65;;;;;;;7.86;100;94979.94;;;;
2021/05/09 01:41:01;;;;;;;2;1.65;;;;;;;7.86;100;94979.94;;;;
2021/05/09 01:42:02;;;;;;;2;1.65;;;;;;;7.86;100;94979.94;;;;
2021/05/09 01:43:03;;;;;;;2;1.65;;;;;;;7.86;100;94979.94;;;;
2021/05/09 01:44:04;;;;;;;2;1.65;;;;;;;7.86;100;94979.94;;;;
2021/05/09 01:45:05;;;;;;;2;1.65;;;;;;;7.86;100;94979.94;;;;
2021/05/09 01:46:07;;;;;;;2;1.65;;;;;;;7.86;100;94979.94;;;;
2021/05/09 01:47:08;;;;;;;2;1.65;;;;;;;7.86;100;94979.94;;;;
2021/05/09 01:48:08;;;;;;;1.8;1.7;;;;;;;7.98;100;94975.05;;;;
2021/05/09 01:49:09;;;;;;;1.8;1.7;;;;;;;7.98;100;94975.05;;;;
2021/05/09 01:50:10;;;;;;;1.8;1.7;;;;;;;7.98;100;94975.05;;;;
2021/05/09 01:51:13;;;;;;;1.8;1.7;;;;;;;7.98;100;94975.05;;;;
2021/05/09 01:52:14;;;;;;;1.8;1.7;;;;;;;7.98;100;94975.05;;;;
2021/05/09 01:53:14;;;;;;;1.8;1.7;;;;;;;7.98;100;94975.05;;;;
2021/05/09 01:54:15;;;;;;;1.8;1.7;;;;;;;7.98;100;94975.05;;;;
2021/05/09 01:55:15;;;;;;;1.8;1.7;;;;;;;7.98;100;94975.05;;;;
2021/05/09 01:56:18;;;;;;;1.8;1.7;;;;;;;7.98;100;94975.05;;;;
2021/05/09 01:57:18;;;;;;;1.8;1.7;;;;;;;7.98;100;94975.05;;;;
2021/05/09 01:58:19;;;;;;;1.8;1.7;;;;;;;7.98;100;94975.05;;;;
2021/05/09 01:59:20;;;;;;;3.2;1.6;;;;;;;8.02;100;94973.52;;;;
2021/05/09 02:00:20;;;;;;;3.2;1.6;;;;;;;8.02;100;94973.52;;;;
2021/05/09 02:01:22;;;;;;;3.2;1.6;;;;;;;8.02;100;94973.52;;;;
2021/05/09 02:02:23;;;;;;;3.2;1.6;;;;;;;8.02;100;94973.52;;;;
2021/05/09 02:03:24;;;;;;;3.2;1.6;;;;;;;8.02;100;94973.52;;;;
2021/05/09 02:04:24;;;;;;;3.2;1.6;;;;;;;8.02;100;94973.52;;;;
2021/05/09 02:05:25;;;;;;;3.2;1.6;;;;;;;8.02;100;94973.52;;;;
2021/05/09 02:06:25;;;;;;;3.2;1.6;;;;;;;8.02;100;94973.52;;;;
2021/05/09 02:07:26;;;;;;;3.2;1.6;;;;;;;8.02;100;94973.52;;;;
2021/05/09 02:08:27;;;;;;;3.2;1.6;;;;;;;8.02;100;94973.52;;;;
2021/05/09 02:09:27;;;;;;;2.3;1.65;;;;;;;7.9;100;94970.39;;;;
2021/05/09 02:10:28;;;;;;;2.3;1.65;;;;;;;7.9;100;94970.39;;;;
2021/05/09 02:11:28;;;;;;;2.3;1.65;;;;;;;7.9;100;94970.39;;;;
2021/05/09 02:12:29;;;;;;;2.3;1.65;;;;;;;7.9;100;94970.39;;;;
2021/05/09 02:13:29;;;;;;;2.3;1.65;;;;;;;7.9;100;94970.39;;;;
2021/05/09 02:14:30;;;;;;;2.3;1.65;;;;;;;7.9;100;94970.39;;;;
2021/05/09 02:15:30;;;;;;;2.3;1.65;;;;;;;7.9;100;94970.39;;;;
2021/05/09 02:16:31;;;;;;;2.3;1.65;;;;;;;7.9;100;94970.39;;;;
2021/05/09 02:17:32;;;;;;;2.3;1.65;;;;;;;7.9;100;94970.39;;;;
2021/05/09 02:18:33;;;;;;;2.3;1.65;;;;;;;7.9;100;94970.39;;;;
2021/05/09 02:19:33;;;;;;;2.3;1.65;;;;;;;7.9;100;94970.39;;;;
2021/05/09 02:20:34;;;;;;;3.3;1.75;;;;;;;7.82;100;94968.95;;;;
2021/05/09 02:21:35;;;;;;;3.3;1.75;;;;;;;7.82;100;94968.95;;;;
2021/05/09 02:22:35;;;;;;;3.3;1.75;;;;;;;7.82;100;94968.95;;;;
2021/05/09 02:23:36;;;;;;;3.3;1.75;;;;;;;7.82;100;94968.95;;;;
2021/05/09 02:24:37;;;;;;;3.3;1.75;;;;;;;7.82;100;94968.95;;;;
2021/05/09 02:25:38;;;;;;;3.3;1.75;;;;;;;7.82;100;94968.95;;;;
2021/05/09 02:26:38;;;;;;;3.3;1.75;;;;;;;7.82;100;94968.95;;;;
2021/05/09 02:27:39;;;;;;;3.3;1.75;;;;;;;7.82;100;94968.95;;;;
2021/05/09 02:28:39;;;;;;;3.3;1.75;;;;;;;7.82;100;94968.95;;;;
2021/05/09 02:29:40;;;;;;;3.3;1.75;;;;;;;7.82;100;94968.95;;;;
2021/05/09 02:30:40;;;;;;;1.9;1.4;;;;;;;7.75;100;94968.22;;;;
2021/05/09 02:31:42;;;;;;;1.9;1.4;;;;;;;7.75;100;94968.22;;;;
2021/05/09 02:32:42;;;;;;;1.9;1.4;;;;;;;7.75;100;94968.22;;;;
2021/05/09 02:33:43;;;;;;;1.9;1.4;;;;;;;7.75;100;94968.22;;;;
2021/05/09 02:34:43;;;;;;;1.9;1.4;;;;;;;7.75;100;94968.22;;;;
2021/05/09 02:35:44;;;;;;;1.9;1.4;;;;;;;7.75;100;94968.22;;;;
2021/05/09 02:36:45;;;;;;;1.9;1.4;;;;;;;7.75;100;94968.22;;;;
2021/05/09 02:37:46;;;;;;;1.9;1.4;;;;;;;7.75;100;94968.22;;;;
2021/05/09 02:38:46;;;;;;;1.9;1.4;;;;;;;7.75;100;94968.22;;;;
2021/05/09 02:39:47;;;;;;;1.9;1.4;;;;;;;7.75;100;94968.22;;;;
2021/05/09 02:40:47;;;;;;;1.9;1.4;;;;;;;7.75;100;94968.22;;;;
2021/05/09 02:41:48;;;;;;;2.5;1.4;;;;;;;7.8;100;94967.52;;;;
2021/05/09 02:42:50;;;;;;;2.5;1.4;;;;;;;7.8;100;94967.52;;;;
2021/05/09 02:43:51;;;;;;;2.5;1.4;;;;;;;7.8;100;94967.52;;;;
2021/05/09 02:44:51;;;;;;;2.5;1.4;;;;;;;7.8;100;94967.52;;;;
2021/05/09 02:45:52;;;;;;;2.5;1.4;;;;;;;7.8;100;94967.52;;;;
2021/05/09 02:46:53;;;;;;;2.5;1.4;;;;;;;7.8;100;94967.52;;;;
2021/05/09 02:47:53;;;;;;;2.5;1.4;;;;;;;7.8;100;94967.52;;;;
2021/05/09 02:48:54;;;;;;;2.5;1.4;;;;;;;7.8;100;94967.52;;;;
2021/05/09 02:49:54;;;;;;;2.5;1.4;;;;;;;7.8;100;94967.52;;;;
2021/05/09 02:50:56;;;;;;;2.5;1.4;;;;;;;7.8;100;94967.52;;;;
2021/05/09 02:51:57;;;;;;;2.5;1.4;;;;;;;7.8;100;94967.52;;;;
2021/05/09 02:52:59;;;;;;;1.65;1.4;;;;;;;7.91;100;94963.56;;;;
2021/05/09 02:54:00;;;;;;;1.65;1.4;;;;;;;7.91;100;94963.56;;;;
2021/05/09 02:55:01;;;;;;;1.65;1.4;;;;;;;7.91;100;94963.56;;;;
2021/05/09 02:56:04;;;;;;;1.65;1.4;;;;;;;7.91;100;94963.56;;;;
2021/05/09 02:57:05;;;;;;;1.65;1.4;;;;;;;7.91;100;94963.56;;;;
2021/05/09 02:58:06;;;;;;;1.65;1.4;;;;;;;7.91;100;94963.56;;;;
2021/05/09 02:59:06;;;;;;;1.65;1.4;;;;;;;7.91;100;94963.56;;;;
2021/05/09 03:00:07;;;;;;;1.65;1.4;;;;;;;7.91;100;94963.56;;;;
2021/05/09 03:01:08;;;;;;;1.65;1.4;;;;;;;7.91;100;94963.56;;;;
2021/05/09 03:02:09;;;;;;;1.65;1.4;;;;;;;7.91;100;94963.56;;;;
2021/05/09 03:03:10;;;;;;;1.95;1.4;;;;;;;7.99;100;94964.15;;;;
2021/05/09 03:04:10;;;;;;;1.95;1.4;;;;;;;7.99;100;94964.15;;;;
2021/05/09 03:05:11;;;;;;;1.95;1.4;;;;;;;7.99;100;94964.15;;;;
2021/05/09 03:06:12;;;;;;;1.95;1.4;;;;;;;7.99;100;94964.15;;;;
2021/05/09 03:07:12;;;;;;;1.95;1.4;;;;;;;7.99;100;94964.15;;;;
2021/05/09 03:08:13;;;;;;;1.95;1.4;;;;;;;7.99;100;94964.15;;;;
2021/05/09 03:09:14;;;;;;;1.95;1.4;;;;;;;7.99;100;94964.15;;;;
2021/05/09 03:10:14;;;;;;;1.95;1.4;;;;;;;7.99;100;94964.15;;;;
2021/05/09 03:11:14;;;;;;;1.95;1.4;;;;;;;7.99;100;94964.15;;;;
2021/05/09 03:12:15;;;;;;;1.95;1.4;;;;;;;7.99;100;94964.15;;;;
2021/05/09 03:13:16;;;;;;;1.95;1.4;;;;;;;7.99;100;94964.15;;;;
2021/05/09 03:14:16;;;;;;;2.2;1.4;;;;;;;8.06;100;94956.81;;;;
2021/05/09 03:15:17;;;;;;;2.2;1.4;;;;;;;8.06;100;94956.81;;;;
2021/05/09 03:16:17;;;;;;;2.2;1.4;;;;;;;8.06;100;94956.81;;;;
2021/05/09 03:17:18;;;;;;;2.2;1.4;;;;;;;8.06;100;94956.81;;;;
2021/05/09 03:18:19;;;;;;;2.2;1.4;;;;;;;8.06;100;94956.81;;;;
2021/05/09 03:19:19;;;;;;;2.2;1.4;;;;;;;8.06;100;94956.81;;;;
2021/05/09 03:20:20;;;;;;;2.2;1.4;;;;;;;8.06;100;94956.81;;;;
2021/05/09 03:21:21;;;;;;;2.2;1.4;;;;;;;8.06;100;94956.81;;;;
2021/05/09 03:22:22;;;;;;;2.2;1.4;;;;;;;8.06;100;94956.81;;;;
2021/05/09 03:23:23;;;;;;;2.2;1.4;;;;;;;8.06;100;94956.81;;;;
2021/05/09 03:24:23;;;;;;;1.3;1.2;;;;;;;8.32;100;94959.17;;;;
2021/05/09 03:25:24;;;;;;;1.3;1.2;;;;;;;8.32;100;94959.17;;;;
2021/05/09 03:26:24;;;;;;;1.3;1.2;;;;;;;8.32;100;94959.17;;;;
2021/05/09 03:27:25;;;;;;;1.3;1.2;;;;;;;8.32;100;94959.17;;;;
2021/05/09 03:28:25;;;;;;;1.3;1.2;;;;;;;8.32;100;94959.17;;;;
2021/05/09 03:29:26;;;;;;;1.3;1.2;;;;;;;8.32;100;94959.17;;;;
2021/05/09 03:30:26;;;;;;;1.3;1.2;;;;;;;8.32;100;94959.17;;;;
2021/05/09 03:31:27;;;;;;;1.3;1.2;;;;;;;8.32;100;94959.17;;;;
2021/05/09 03:32:28;;;;;;;1.3;1.2;;;;;;;8.32;100;94959.17;;;;
2021/05/09 03:33:28;;;;;;;1.3;1.2;;;;;;;8.32;100;94959.17;;;;
2021/05/09 03:34:29;;;;;;;1.3;1.2;;;;;;;8.32;100;94959.17;;;;
2021/05/09 03:35:29;;;;;;;2;1.35;;;;;;;8.59;100;94959.58;;;;
2021/05/09 03:36:30;;;;;;;2;1.35;;;;;;;8.59;100;94959.58;;;;
2021/05/09 03:37:30;;;;;;;2;1.35;;;;;;;8.59;100;94959.58;;;;
2021/05/09 03:38:31;;;;;;;2;1.35;;;;;;;8.59;100;94959.58;;;;
2021/05/09 03:39:31;;;;;;;2;1.35;;;;;;;8.59;100;94959.58;;;;
2021/05/09 03:40:32;;;;;;;2;1.35;;;;;;;8.59;100;94959.58;;;;
2021/05/09 03:41:32;;;;;;;2;1.35;;;;;;;8.59;100;94959.58;;;;
2021/05/09 03:42:33;;;;;;;2;1.35;;;;;;;8.59;100;94959.58;;;;
2021/05/09 03:43:34;;;;;;;2;1.35;;;;;;;8.59;100;94959.58;;;;
2021/05/09 03:44:35;;;;;;;2;1.35;;;;;;;8.59;100;94959.58;;;;
2021/05/09 03:45:35;;;;;;;1.5;1.4;;;;;;;8.87;100;94964.17;;;;
2021/05/09 03:46:36;;;;;;;1.5;1.4;;;;;;;8.87;100;94964.17;;;;
2021/05/09 03:47:38;;;;;;;1.5;1.4;;;;;;;8.87;100;94964.17;;;;
2021/05/09 03:48:38;;;;;;;1.5;1.4;;;;;;;8.87;100;94964.17;;;;
2021/05/09 03:49:39;;;;;;;1.5;1.4;;;;;;;8.87;100;94964.17;;;;
2021/05/09 03:50:39;;;;;;;1.5;1.4;;;;;;;8.87;100;94964.17;;;;
2021/05/09 03:51:40;;;;;;;1.5;1.4;;;;;;;8.87;100;94964.17;;;;
2021/05/09 03:52:40;;;;;;;1.5;1.4;;;;;;;8.87;100;94964.17;;;;
2021/05/09 03:53:41;;;;;;;1.5;1.4;;;;;;;8.87;100;94964.17;;;;
2021/05/09 03:54:41;;;;;;;1.5;1.4;;;;;;;8.87;100;94964.17;;;;
2021/05/09 03:55:42;;;;;;;1.5;1.4;;;;;;;8.87;100;94964.17;;;;
2021/05/09 03:56:42;;;;;;;1.75;1.45;;;;;;;9.15;100;94963.07;;;;
2021/05/09 03:57:43;;;;;;;1.75;1.45;;;;;;;9.15;100;94963.07;;;;
2021/05/09 03:58:43;;;;;;;1.75;1.45;;;;;;;9.15;100;94963.07;;;;
2021/05/09 03:59:44;;;;;;;1.75;1.45;;;;;;;9.15;100;94963.07;;;;
2021/05/09 04:00:44;;;;;;;1.75;1.45;;;;;;;9.15;100;94963.07;;;;
2021/05/09 04:01:45;;;;;;;1.75;1.45;;;;;;;9.15;100;94963.07;;;;
2021/05/09 04:02:46;;;;;;;1.75;1.45;;;;;;;9.15;100;94963.07;;;;
2021/05/09 04:03:46;;;;;;;1.75;1.45;;;;;;;9.15;100;94963.07;;;;
2021/05/09 04:04:47;;;;;;;1.75;1.45;;;;;;;9.15;100;94963.07;;;;
2021/05/09 04:05:48;;;;;;;1.75;1.45;;;;;;;9.15;100;94963.07;;;;
2021/05/09 04:06:50;;;;;;;1.9;1.45;;;;;;;9.35;100;94958.97;;;;
2021/05/09 04:07:50;;;;;;;1.9;1.45;;;;;;;9.35;100;94958.97;;;;
2021/05/09 04:08:51;;;;;;;1.9;1.45;;;;;;;9.35;100;94958.97;;;;
2021/05/09 04:09:51;;;;;;;1.9;1.45;;;;;;;9.35;100;94958.97;;;;
2021/05/09 04:10:52;;;;;;;1.9;1.45;;;;;;;9.35;100;94958.97;;;;
2021/05/09 04:11:55;;;;;;;1.9;1.45;;;;;;;9.35;100;94958.97;;;;
2021/05/09 04:12:56;;;;;;;1.9;1.45;;;;;;;9.35;100;94958.97;;;;
2021/05/09 04:13:56;;;;;;;1.9;1.45;;;;;;;9.35;100;94958.97;;;;
2021/05/09 04:14:57;;;;;;;1.9;1.45;;;;;;;9.35;100;94958.97;;;;
2021/05/09 04:15:58;;;;;;;1.9;1.45;;;;;;;9.35;100;94958.97;;;;
2021/05/09 04:16:58;;;;;;;1.9;1.45;;;;;;;9.35;100;94958.97;;;;
2021/05/09 04:17:59;;;;;;;1.35;1.25;;;;;;;9.39;100;94950.27;;;;
2021/05/09 04:18:59;;;;;;;1.35;1.25;;;;;;;9.39;100;94950.27;;;;
2021/05/09 04:20:00;;;;;;;1.35;1.25;;;;;;;9.39;100;94950.27;;;;
2021/05/09 04:21:00;;;;;;;1.35;1.25;;;;;;;9.39;100;94950.27;;;;
2021/05/09 04:22:01;;;;;;;1.35;1.25;;;;;;;9.39;100;94950.27;;;;
2021/05/09 04:23:02;;;;;;;1.35;1.25;;;;;;;9.39;100;94950.27;;;;
2021/05/09 04:24:07;;;;;;;1.35;1.25;;;;;;;9.39;100;94950.27;;;;
2021/05/09 04:25:08;;;;;;;1.35;1.25;;;;;;;9.39;100;94950.27;;;;
2021/05/09 04:26:09;;;;;;;1.35;1.25;;;;;;;9.39;100;94950.27;;;;
2021/05/09 04:27:10;;;;;;;1.35;1.25;;;;;;;9.39;100;94950.27;;;;
2021/05/09 04:28:10;;;;;;;1.5;1.4;;;;;;;9.41;100;94943.73;;;;
2021/05/09 04:29:11;;;;;;;1.5;1.4;;;;;;;9.41;100;94943.73;;;;
2021/05/09 04:30:12;;;;;;;1.5;1.4;;;;;;;9.41;100;94943.73;;;;
2021/05/09 04:31:13;;;;;;;1.5;1.4;;;;;;;9.41;100;94943.73;;;;
2021/05/09 04:32:13;;;;;;;1.5;1.4;;;;;;;9.41;100;94943.73;;;;
2021/05/09 04:33:14;;;;;;;1.5;1.4;;;;;;;9.41;100;94943.73;;;;
2021/05/09 04:34:15;;;;;;;1.5;1.4;;;;;;;9.41;100;94943.73;;;;
2021/05/09 04:35:16;;;;;;;1.5;1.4;;;;;;;9.41;100;94943.73;;;;
2021/05/09 04:36:16;;;;;;;1.5;1.4;;;;;;;9.41;100;94943.73;;;;
2021/05/09 04:37:17;;;;;;;1.5;1.4;;;;;;;9.41;100;94943.73;;;;
2021/05/09 04:38:18;;;;;;;1.5;1.4;;;;;;;9.41;100;94943.73;;;;
2021/05/09 04:39:19;;;;;;;1.3;1.2;;;;;;;9.54;100;94947.5;;;;
2021/05/09 04:40:19;;;;;;;1.3;1.2;;;;;;;9.54;100;94947.5;;;;
2021/05/09 04:41:20;;;;;;;1.3;1.2;;;;;;;9.54;100;94947.5;;;;
2021/05/09 04:42:21;;;;;;;1.3;1.2;;;;;;;9.54;100;94947.5;;;;
2021/05/09 04:43:22;;;;;;;1.3;1.2;;;;;;;9.54;100;94947.5;;;;
2021/05/09 04:44:23;;;;;;;1.3;1.2;;;;;;;9.54;100;94947.5;;;;
2021/05/09 04:45:23;;;;;;;1.3;1.2;;;;;;;9.54;100;94947.5;;;;
2021/05/09 04:46:24;;;;;;;1.3;1.2;;;;;;;9.54;100;94947.5;;;;
2021/05/09 04:47:24;;;;;;;1.3;1.2;;;;;;;9.54;100;94947.5;;;;
2021/05/09 04:48:25;;;;;;;1.3;1.2;;;;;;;9.54;100;94947.5;;;;
2021/05/09 04:49:25;;;;;;;1.4;1.3;;;;;;;9.84;100;94946.38;;;;
2021/05/09 04:50:27;;;;;;;1.4;1.3;;;;;;;9.84;100;94946.38;;;;
2021/05/09 04:51:27;;;;;;;1.4;1.3;;;;;;;9.84;100;94946.38;;;;
2021/05/09 04:52:28;;;;;;;1.4;1.3;;;;;;;9.84;100;94946.38;;;;
2021/05/09 04:53:28;;;;;;;1.4;1.3;;;;;;;9.84;100;94946.38;;;;
2021/05/09 04:54:31;;;;;;;1.4;1.3;;;;;;;9.84;100;94946.38;;;;
2021/05/09 04:55:32;;;;;;;1.4;1.3;;;;;;;9.84;100;94946.38;;;;
2021/05/09 04:56:32;;;;;;;1.4;1.3;;;;;;;9.84;100;94946.38;;;;
2021/05/09 04:57:33;;;;;;;1.4;1.3;;;;;;;9.84;100;94946.38;;;;
2021/05/09 04:58:34;;;;;;;1.4;1.3;;;;;;;9.84;100;94946.38;;;;
2021/05/09 04:59:36;;;;;;;1.4;1.3;;;;;;;9.84;100;94946.38;;;;
2021/05/09 05:00:36;;;;;;;1.55;1.3;;;;;;;10.32;100;94940.99;;;;
2021/05/09 05:01:37;;;;;;;1.55;1.3;;;;;;;10.32;100;94940.99;;;;
2021/05/09 05:02:37;;;;;;;1.55;1.3;;;;;;;10.32;100;94940.99;;;;
2021/05/09 05:03:38;;;;;;;1.55;1.3;;;;;;;10.32;100;94940.99;;;;
2021/05/09 05:04:39;;;;;;;1.55;1.3;;;;;;;10.32;100;94940.99;;;;
2021/05/09 05:05:40;;;;;;;1.55;1.3;;;;;;;10.32;100;94940.99;;;;
2021/05/09 05:06:40;;;;;;;1.55;1.3;;;;;;;10.32;100;94940.99;;;;
2021/05/09 05:07:41;;;;;;;1.55;1.3;;;;;;;10.32;100;94940.99;;;;
2021/05/09 05:08:41;;;;;;;1.55;1.3;;;;;;;10.32;100;94940.99;;;;
2021/05/09 05:09:42;;;;;;;1.55;1.3;;;;;;;10.32;100;94940.99;;;;
2021/05/09 05:10:42;;;;;;;1.55;1.3;;;;;;;10.32;100;94940.99;;;;
2021/05/09 05:11:43;;;;;;;2.1;1.25;;;;;;;10.86;100;94940.31;;;;
2021/05/09 05:12:44;;;;;;;2.1;1.25;;;;;;;10.86;100;94940.31;;;;
2021/05/09 05:13:44;;;;;;;2.1;1.25;;;;;;;10.86;100;94940.31;;;;
2021/05/09 05:14:45;;;;;;;2.1;1.25;;;;;;;10.86;100;94940.31;;;;
2021/05/09 05:15:45;;;;;;;2.1;1.25;;;;;;;10.86;100;94940.31;;;;
2021/05/09 05:16:47;;;;;;;2.1;1.25;;;;;;;10.86;100;94940.31;;;;
2021/05/09 05:17:47;;;;;;;2.1;1.25;;;;;;;10.86;100;94940.31;;;;
2021/05/09 05:18:48;;;;;;;2.1;1.25;;;;;;;10.86;100;94940.31;;;;
2021/05/09 05:19:48;;;;;;;2.1;1.25;;;;;;;10.86;100;94940.31;;;;
2021/05/09 05:20:49;;;;;;;2.1;1.25;;;;;;;10.86;100;94940.31;;;;
2021/05/09 05:21:50;;;;;;;1.4;1.2;;;;;;;11.4;100;94937.19;;;;
2021/05/09 05:22:51;;;;;;;1.4;1.2;;;;;;;11.4;100;94937.19;;;;
2021/05/09 05:23:51;;;;;;;1.4;1.2;;;;;;;11.4;100;94937.19;;;;
2021/05/09 05:24:52;;;;;;;1.4;1.2;;;;;;;11.4;100;94937.19;;;;
2021/05/09 05:25:52;;;;;;;1.4;1.2;;;;;;;11.4;100;94937.19;;;;
2021/05/09 05:26:53;;;;;;;1.4;1.2;;;;;;;11.4;100;94937.19;;;;
2021/05/09 05:27:53;;;;;;;1.4;1.2;;;;;;;11.4;100;94937.19;;;;
2021/05/09 05:28:54;;;;;;;1.4;1.2;;;;;;;11.4;100;94937.19;;;;
2021/05/09 05:29:54;;;;;;;1.4;1.2;;;;;;;11.4;100;94937.19;;;;
2021/05/09 05:30:55;;;;;;;1.4;1.2;;;;;;;11.4;100;94937.19;;;;
2021/05/09 05:31:56;;;;;;;1.4;1.2;;;;;;;11.4;100;94937.19;;;;
2021/05/09 05:32:57;;;;;;;1.6;1.2;;;;;;;11.96;98.33984;94934.31;;;;
2021/05/09 05:33:59;;;;;;;1.6;1.2;;;;;;;11.96;98.33984;94934.31;;;;
2021/05/09 05:35:00;;;;;;;1.6;1.2;;;;;;;11.96;98.33984;94934.31;;;;
2021/05/09 05:36:01;;;;;;;1.6;1.2;;;;;;;11.96;98.33984;94934.31;;;;
2021/05/09 05:37:03;;;;;;;1.6;1.2;;;;;;;11.96;98.33984;94934.31;;;;
2021/05/09 05:38:04;;;;;;;1.6;1.2;;;;;;;11.96;98.33984;94934.31;;;;
2021/05/09 05:39:05;;;;;;;1.6;1.2;;;;;;;11.96;98.33984;94934.31;;;;
2021/05/09 05:40:06;;;;;;;1.6;1.2;;;;;;;11.96;98.33984;94934.31;;;;
2021/05/09 05:41:09;;;;;;;1.6;1.2;;;;;;;11.96;98.33984;94934.31;;;;
2021/05/09 05:42:09;;;;;;;1.6;1.2;;;;;;;11.96;98.33984;94934.31;;;;
2021/05/09 05:43:10;;;;;;;2.1;1.2;;;;;;;12.5;96.3252;94931.11;;;;
2021/05/09 05:44:11;;;;;;;2.1;1.2;;;;;;;12.5;96.3252;94931.11;;;;
2021/05/09 05:45:11;;;;;;;2.1;1.2;;;;;;;12.5;96.3252;94931.11;;;;
2021/05/09 05:46:12;;;;;;;2.1;1.2;;;;;;;12.5;96.3252;94931.11;;;;
2021/05/09 05:47:13;;;;;;;2.1;1.2;;;;;;;12.5;96.3252;94931.11;;;;
2021/05/09 05:48:13;;;;;;;2.1;1.2;;;;;;;12.5;96.3252;94931.11;;;;
2021/05/09 05:49:14;;;;;;;2.1;1.2;;;;;;;12.5;96.3252;94931.11;;;;
2021/05/09 05:50:14;;;;;;;2.1;1.2;;;;;;;12.5;96.3252;94931.11;;;;
2021/05/09 05:51:15;;;;;;;2.1;1.2;;;;;;;12.5;96.3252;94931.11;;;;
2021/05/09 05:52:16;;;;;;;2.1;1.2;;;;;;;12.5;96.3252;94931.11;;;;
2021/05/09 05:53:17;;;;;;;2.1;1.2;;;;;;;12.5;96.3252;94931.11;;;;
2021/05/09 05:54:18;;;;;;;1.7;1.1;;;;;;;12.99;94.57227;94926.25;;;;
2021/05/09 05:55:19;;;;;;;1.7;1.1;;;;;;;12.99;94.57227;94926.25;;;;
2021/05/09 05:56:19;;;;;;;1.7;1.1;;;;;;;12.99;94.57227;94926.25;;;;
2021/05/09 05:57:20;;;;;;;1.7;1.1;;;;;;;12.99;94.57227;94926.25;;;;
2021/05/09 05:58:20;;;;;;;1.7;1.1;;;;;;;12.99;94.57227;94926.25;;;;
2021/05/09 05:59:22;;;;;;;1.7;1.1;;;;;;;12.99;94.57227;94926.25;;;;
2021/05/09 06:00:23;;;;;;;1.7;1.1;;;;;;;12.99;94.57227;94926.25;;;;
2021/05/09 06:01:23;;;;;;;1.7;1.1;;;;;;;12.99;94.57227;94926.25;;;;
2021/05/09 06:02:24;;;;;;;1.7;1.1;;;;;;;12.99;94.57227;94926.25;;;;
2021/05/09 06:03:24;;;;;;;1.7;1.1;;;;;;;12.99;94.57227;94926.25;;;;
2021/05/09 06:04:25;;;;;;;2.7;1.1;;;;;;;13.59;93.4375;94920.43;;;;
2021/05/09 06:05:25;;;;;;;2.7;1.1;;;;;;;13.59;93.4375;94920.43;;;;
2021/05/09 06:06:26;;;;;;;2.7;1.1;;;;;;;13.59;93.4375;94920.43;;;;
2021/05/09 06:07:28;;;;;;;2.7;1.1;;;;;;;13.59;93.4375;94920.43;;;;
2021/05/09 06:08:29;;;;;;;2.7;1.1;;;;;;;13.59;93.4375;94920.43;;;;
2021/05/09 06:09:29;;;;;;;2.7;1.1;;;;;;;13.59;93.4375;94920.43;;;;
2021/05/09 06:10:30;;;;;;;2.7;1.1;;;;;;;13.59;93.4375;94920.43;;;;
2021/05/09 06:11:30;;;;;;;2.7;1.1;;;;;;;13.59;93.4375;94920.43;;;;
2021/05/09 06:12:31;;;;;;;2.7;1.1;;;;;;;13.59;93.4375;94920.43;;;;
2021/05/09 06:13:31;;;;;;;2.7;1.1;;;;;;;13.59;93.4375;94920.43;;;;
2021/05/09 06:14:32;;;;;;;2.7;1.1;;;;;;;13.59;93.4375;94920.43;;;;
2021/05/09 06:15:33;;;;;;;1.3;1.2;;;;;;;14.28;90.32227;94921.83;;;;
2021/05/09 06:16:34;;;;;;;1.3;1.2;;;;;;;14.28;90.32227;94921.83;;;;
2021/05/09 06:17:34;;;;;;;1.3;1.2;;;;;;;14.28;90.32227;94921.83;;;;
2021/05/09 06:18:36;;;;;;;1.3;1.2;;;;;;;14.28;90.32227;94921.83;;;;
2021/05/09 06:19:36;;;;;;;1.3;1.2;;;;;;;14.28;90.32227;94921.83;;;;
2021/05/09 06:20:37;;;;;;;1.3;1.2;;;;;;;14.28;90.32227;94921.83;;;;